Little Falls, Wisconsin
Current Conditions -  °F | °C
As of 3:55 AM on Friday 28 Nov 2014 (Local Time) from KOEO Reporting Station
Light Snow Light Snow  
Wind Chill: -3°   Ceiling: 1400
Heat Index: 10°   Visibility: 2mi
Dew Point:   Wind: 10mph
Humidity: 87%   Direction: 120°ESE
Pressure: 30.15"   Gusts: NA
Location:  45.3559°N, 92.3527°W
Report Text: KOEO 280955Z AUTO 12009KT 2SM -SN BKN014 OVC019 M12/M14 A3015 RMK AO2 T11201138
Loading
Personal Weather Stations






























Interactive Weather Map New forecast layout! Learn more

10-Day Weather Forecast

Advertisements
Track Severe Weather on mobile